Time;durP1;ratioP1;P1;durP2;ratioP2;P2;SDS_P1;SDS_P2;PMS_P1;PMS_P2;Temp;Humidity;BMP_temperature;BMP_pressure;BME280_temperature;BME280_humidity;BME280_pressure;Samples;Min_cycle;Max_cycle;Signal;HPM_P1;HPM_P2
2023/05/09 00:00:05;;;;;;;;;;;16.10;59.00;;;;;;5011341;28;19921;-77
2023/05/09 00:02:33;;;;;;;;;;;16.10;59.10;;;;;;5025824;28;19925;-77
2023/05/09 00:04:59;;;;;;;;;;;16.10;59.10;;;;;;5025598;28;20669;-77
2023/05/09 00:07:24;;;;;;;;;;;16.00;59.10;;;;;;5013820;28;19928;-77
2023/05/09 00:09:50;;;;;;;;;;;16.00;59.10;;;;;;5030042;28;19955;-77
2023/05/09 00:12:16;;;;;;;;;;;16.00;59.10;;;;;;5025436;28;19928;-76
2023/05/09 00:14:44;;;;;;;;;;;16.00;59.20;;;;;;5012250;28;19921;-77
2023/05/09 00:17:14;;;;;;;;;;;16.00;59.20;;;;;;5019554;28;19925;-77
2023/05/09 00:19:40;;;;;;;;;;;16.00;59.30;;;;;;5010099;28;19920;-77
2023/05/09 00:22:07;;;;;;;;;;;15.90;59.20;;;;;;5025857;28;19986;-76
2023/05/09 00:24:33;;;;;;;;;;;15.90;59.20;;;;;;5011463;28;19931;-77
2023/05/09 00:26:59;;;;;;;;;;;15.90;59.20;;;;;;5025942;28;19921;-77
2023/05/09 00:29:24;;;;;;;;;;;15.90;59.30;;;;;;5009550;28;19921;-78
2023/05/09 00:31:50;;;;;;;;;;;15.90;59.30;;;;;;5014370;28;20456;-77
2023/05/09 00:34:15;;;;;;;;;;;15.90;59.30;;;;;;5033241;28;19924;-76
2023/05/09 00:36:41;;;;;;;;;;;15.80;59.30;;;;;;5033625;28;19921;-77
2023/05/09 00:39:06;;;;;;;;;;;15.80;59.30;;;;;;5014974;28;19921;-77
2023/05/09 00:41:32;;;;;;;;;;;15.80;59.40;;;;;;5015760;28;19924;-77
2023/05/09 00:43:57;;;;;;;;;;;15.80;59.40;;;;;;5010447;28;19921;-76
2023/05/09 00:46:23;;;;;;;;;;;15.80;59.40;;;;;;5015128;28;19963;-77
2023/05/09 00:48:48;;;;;;;;;;;15.80;59.40;;;;;;5013649;28;19921;-76
2023/05/09 00:51:14;;;;;;;;;;;15.80;59.40;;;;;;5013593;28;19983;-77
2023/05/09 00:53:39;;;;;;;;;;;15.70;59.40;;;;;;5013829;28;20016;-76
2023/05/09 00:56:05;;;;;;;;;;;15.70;59.40;;;;;;5014912;28;19972;-76
2023/05/09 00:58:31;;;;;;;;;;;15.70;59.50;;;;;;5014436;28;20479;-77
2023/05/09 01:00:56;;;;;;;;;;;15.70;59.50;;;;;;5012890;28;20634;-77
2023/05/09 01:03:22;;;;;;;;;;;15.70;59.50;;;;;;5031728;28;19937;-78
2023/05/09 01:05:55;;;;;;;;;;;15.70;59.50;;;;;;5029348;28;19921;-77
2023/05/09 01:08:42;;;;;;;;;;;15.70;59.60;;;;;;5030418;28;19932;-77
2023/05/09 01:11:21;;;;;;;;;;;15.60;59.50;;;;;;5014257;28;19995;-76
2023/05/09 01:13:51;;;;;;;;;;;15.60;59.60;;;;;;5027953;28;19932;-77
2023/05/09 01:16:43;;;;;;;;;;;15.60;59.60;;;;;;5010748;28;20459;-77
2023/05/09 01:19:16;;;;;;;;;;;15.60;59.60;;;;;;5000053;28;19928;-77
2023/05/09 01:21:42;;;;;;;;;;;15.60;59.60;;;;;;5013390;28;19927;-77
2023/05/09 01:24:21;;;;;;;;;;;15.60;59.70;;;;;;4996348;28;19920;-77
2023/05/09 01:27:05;;;;;;;;;;;15.50;59.70;;;;;;5011256;28;19932;-77
2023/05/09 01:29:31;;;;;;;;;;;15.50;59.70;;;;;;5027769;28;19925;-77
2023/05/09 03:27:19;;;;;;;;;;;14.50;60.90;;;;;;5018401;28;19960;-77
2023/05/09 03:29:45;;;;;;;;;;;14.40;60.80;;;;;;5002630;28;19933;-77
2023/05/09 03:32:10;;;;;;;;;;;14.40;60.90;;;;;;5008208;28;20379;-77
2023/05/09 03:34:36;;;;;;;;;;;14.40;60.90;;;;;;4992922;28;19921;-76
2023/05/09 03:37:01;;;;;;;;;;;14.40;60.90;;;;;;4991110;28;19929;-77
2023/05/09 03:39:27;;;;;;;;;;;14.40;61.00;;;;;;5007145;28;19921;-77
2023/05/09 03:41:52;;;;;;;;;;;14.40;61.00;;;;;;5007822;28;20000;-77
2023/05/09 03:44:17;;;;;;;;;;;14.40;61.00;;;;;;5009785;28;20669;-76
2023/05/09 03:46:43;;;;;;;;;;;14.40;61.00;;;;;;5008214;28;19925;-77
2023/05/09 03:49:08;;;;;;;;;;;14.30;61.00;;;;;;5006395;28;19933;-76
2023/05/09 03:51:34;;;;;;;;;;;14.40;61.00;;;;;;4995165;28;19932;-77
2023/05/09 03:53:59;;;;;;;;;;;14.30;61.00;;;;;;5008751;28;19921;-76
2023/05/09 03:56:25;;;;;;;;;;;14.30;61.00;;;;;;5000630;28;19929;-77
2023/05/09 03:58:51;;;;;;;;;;;14.30;61.00;;;;;;5007621;28;19921;-77
2023/05/09 04:01:16;;;;;;;;;;;14.30;61.10;;;;;;5009782;28;19925;-76
2023/05/09 04:03:42;;;;;;;;;;;14.30;61.10;;;;;;4991850;28;20004;-76
2023/05/09 04:06:07;;;;;;;;;;;14.30;61.20;;;;;;4990648;28;20583;-75
2023/05/09 04:08:32;;;;;;;;;;;14.30;62.00;;;;;;4992522;28;20380;-77
2023/05/09 04:10:58;;;;;;;;;;;14.20;61.10;;;;;;5004803;28;19976;-77
2023/05/09 04:13:23;;;;;;;;;;;14.20;61.10;;;;;;4991345;28;19975;-77
2023/05/09 04:15:49;;;;;;;;;;;14.20;61.10;;;;;;4989724;28;19973;-77
2023/05/09 04:18:15;;;;;;;;;;;14.20;61.20;;;;;;4993850;28;19935;-77
2023/05/09 04:20:40;;;;;;;;;;;14.20;61.20;;;;;;5007098;28;20003;-77
2023/05/09 04:23:06;;;;;;;;;;;14.20;61.20;;;;;;4988033;28;19921;-76
2023/05/09 04:25:31;;;;;;;;;;;14.20;61.20;;;;;;4979955;28;20583;-77
2023/05/09 04:27:57;;;;;;;;;;;14.20;61.20;;;;;;5007173;28;19929;-76
2023/05/09 04:30:25;;;;;;;;;;;14.20;61.30;;;;;;5008636;28;19933;-78
2023/05/09 04:32:52;;;;;;;;;;;14.20;61.20;;;;;;5003976;28;20011;-76
2023/05/09 04:35:17;;;;;;;;;;;14.20;61.30;;;;;;5006989;28;19925;-76
2023/05/09 04:37:43;;;;;;;;;;;14.20;61.30;;;;;;5023873;28;19948;-76
2023/05/09 04:40:09;;;;;;;;;;;14.20;61.60;;;;;;5003668;28;20679;-76
2023/05/09 04:42:34;;;;;;;;;;;14.20;61.30;;;;;;5025043;28;19947;-77
2023/05/09 04:45:00;;;;;;;;;;;14.20;61.30;;;;;;5006319;28;20023;-77
2023/05/09 04:47:25;;;;;;;;;;;14.20;61.30;;;;;;5005830;28;19925;-78
2023/05/09 04:49:51;;;;;;;;;;;14.20;61.30;;;;;;5024652;28;20334;-78
2023/05/09 04:52:16;;;;;;;;;;;14.20;61.20;;;;;;5026538;28;20006;-77
2023/05/09 04:54:42;;;;;;;;;;;14.30;61.30;;;;;;5007593;28;19928;-76
2023/05/09 04:57:08;;;;;;;;;;;14.30;61.30;;;;;;5010909;28;19959;-77
2023/05/09 04:59:33;;;;;;;;;;;14.30;61.30;;;;;;4995377;28;19921;-77
2023/05/09 05:01:59;;;;;;;;;;;14.30;61.20;;;;;;5013023;28;19964;-77
2023/05/09 05:04:24;;;;;;;;;;;14.30;61.20;;;;;;5009907;28;19929;-77
2023/05/09 05:06:50;;;;;;;;;;;14.30;61.20;;;;;;5007854;28;19921;-77
2023/05/09 05:09:15;;;;;;;;;;;14.40;61.20;;;;;;5008504;28;19931;-76
2023/05/09 05:11:41;;;;;;;;;;;14.40;61.30;;;;;;5009388;28;20004;-77
2023/05/09 05:14:06;;;;;;;;;;;14.40;61.30;;;;;;4996541;28;20633;-77
2023/05/09 05:16:32;;;;;;;;;;;14.40;61.20;;;;;;5014281;28;19917;-78
2023/05/09 05:18:57;;;;;;;;;;;14.40;61.20;;;;;;5011421;28;20558;-77
2023/05/09 05:21:23;;;;;;;;;;;14.40;61.20;;;;;;5034204;28;20018;-77
2023/05/09 05:23:48;;;;;;;;;;;14.40;61.10;;;;;;5011077;28;19925;-77
2023/05/09 05:26:13;;;;;;;;;;;14.50;61.20;;;;;;5014004;28;20384;-77
2023/05/09 05:28:39;;;;;;;;;;;14.50;61.10;;;;;;5032094;28;19979;-77
2023/05/09 05:31:04;;;;;;;;;;;14.50;61.10;;;;;;5013080;28;19929;-77
2023/05/09 05:33:30;;;;;;;;;;;14.50;61.10;;;;;;5029489;28;20004;-77
2023/05/09 05:35:55;;;;;;;;;;;14.50;61.10;;;;;;5013734;28;19921;-77
2023/05/09 05:38:21;;;;;;;;;;;14.50;61.10;;;;;;5028506;28;20462;-77
2023/05/09 05:40:46;;;;;;;;;;;14.60;61.10;;;;;;5031654;28;19921;-76
2023/05/09 05:43:12;;;;;;;;;;;14.50;61.10;;;;;;5010593;28;19968;-77
2023/05/09 05:45:37;;;;;;;;;;;14.60;61.10;;;;;;5008947;28;19921;-77
2023/05/09 05:48:03;;;;;;;;;;;14.60;61.10;;;;;;5013129;28;19991;-77
2023/05/09 05:50:28;;;;;;;;;;;14.60;61.00;;;;;;5031826;28;19925;-77
2023/05/09 05:52:54;;;;;;;;;;;14.60;61.10;;;;;;5014553;28;20356;-76
2023/05/09 05:55:19;;;;;;;;;;;14.70;61.00;;;;;;5002214;28;19925;-76
2023/05/09 05:57:46;;;;;;;;;;;14.70;61.00;;;;;;5011426;28;19921;-77
2023/05/09 06:00:13;;;;;;;;;;;14.70;60.90;;;;;;5026967;28;19952;-77
2023/05/09 06:02:41;;;;;;;;;;;14.70;60.90;;;;;;5028047;28;20020;-76
2023/05/09 06:05:07;;;;;;;;;;;14.80;60.90;;;;;;5013206;28;20403;-77
2023/05/09 06:07:32;;;;;;;;;;;14.80;60.90;;;;;;5030238;28;20402;-78
2023/05/09 06:09:58;;;;;;;;;;;14.80;60.80;;;;;;5017788;28;20019;-77
2023/05/09 06:12:23;;;;;;;;;;;14.90;60.90;;;;;;5027087;28;19924;-77
2023/05/09 06:14:49;;;;;;;;;;;14.90;60.80;;;;;;5019023;28;19987;-77
2023/05/09 06:17:14;;;;;;;;;;;15.00;60.80;;;;;;5025699;28;19921;-77
2023/05/09 06:19:40;;;;;;;;;;;15.00;60.70;;;;;;5027631;28;19982;-77
2023/05/09 06:22:05;;;;;;;;;;;15.10;60.70;;;;;;5027586;28;19921;-77
2023/05/09 06:24:31;;;;;;;;;;;15.20;60.60;;;;;;5028458;28;19971;-77
2023/05/09 06:26:56;;;;;;;;;;;15.30;60.60;;;;;;5028221;28;19996;-77
2023/05/09 06:29:21;;;;;;;;;;;15.40;60.50;;;;;;5016422;28;19973;-77
2023/05/09 06:31:47;;;;;;;;;;;15.50;60.40;;;;;;5026928;28;19939;-77
2023/05/09 06:34:12;;;;;;;;;;;15.60;60.40;;;;;;5013111;28;19952;-77
2023/05/09 06:36:38;;;;;;;;;;;15.70;60.40;;;;;;5025721;28;19924;-78
2023/05/09 06:39:03;;;;;;;;;;;15.70;60.20;;;;;;5029632;28;19936;-77
2023/05/09 06:41:29;;;;;;;;;;;15.90;60.20;;;;;;5010780;28;20008;-77
2023/05/09 06:43:55;;;;;;;;;;;16.00;60.10;;;;;;5025623;28;19925;-81
2023/05/09 06:46:23;;;;;;;;;;;16.10;59.90;;;;;;5030983;28;20025;-77
2023/05/09 06:48:48;;;;;;;;;;;16.10;59.80;;;;;;5013045;28;19921;-77
2023/05/09 06:51:15;;;;;;;;;;;16.20;59.80;;;;;;5003583;28;19929;-77
2023/05/09 06:53:40;;;;;;;;;;;16.30;59.70;;;;;;4995565;28;19921;-77
2023/05/09 06:56:07;;;;;;;;;;;16.40;59.70;;;;;;5007698;28;21221;-78
2023/05/09 06:58:33;;;;;;;;;;;16.50;59.70;;;;;;5010597;28;19964;-78
2023/05/09 07:00:58;;;;;;;;;;;16.60;59.60;;;;;;4999724;28;19992;-78
2023/05/09 07:03:24;;;;;;;;;;;16.70;59.50;;;;;;5007144;28;19928;-77
2023/05/09 07:05:51;;;;;;;;;;;16.80;59.50;;;;;;5012635;28;19979;-77
2023/05/09 07:08:16;;;;;;;;;;;16.90;59.30;;;;;;5028289;28;20357;-77
2023/05/09 07:10:42;;;;;;;;;;;16.90;59.30;;;;;;5010738;28;19925;-77
2023/05/09 07:13:07;;;;;;;;;;;16.90;59.20;;;;;;5011705;28;19921;-77
2023/05/09 07:15:33;;;;;;;;;;;17.00;59.20;;;;;;5017319;28;20556;-77
2023/05/09 07:17:58;;;;;;;;;;;17.00;59.20;;;;;;5008780;28;19959;-77
2023/05/09 07:20:24;;;;;;;;;;;17.10;59.10;;;;;;5011965;28;19921;-78
2023/05/09 07:22:50;;;;;;;;;;;17.10;59.00;;;;;;5011971;28;19917;-77
2023/05/09 07:25:15;;;;;;;;;;;17.30;59.00;;;;;;5011036;28;19921;-77
2023/05/09 07:27:41;;;;;;;;;;;17.30;59.00;;;;;;5011951;28;20386;-77
2023/05/09 07:30:08;;;;;;;;;;;17.40;58.90;;;;;;5011240;28;19932;-77
2023/05/09 07:32:33;;;;;;;;;;;17.40;58.80;;;;;;4999266;28;19920;-77
2023/05/09 07:34:59;;;;;;;;;;;17.50;58.80;;;;;;5028436;28;19927;-77
2023/05/09 07:37:24;;;;;;;;;;;17.50;58.70;;;;;;5028522;28;19932;-78
2023/05/09 07:39:50;;;;;;;;;;;17.60;58.70;;;;;;5010381;28;19928;-78
2023/05/09 07:42:16;;;;;;;;;;;17.70;58.60;;;;;;5010919;28;19932;-77
2023/05/09 07:44:41;;;;;;;;;;;17.70;58.50;;;;;;5007251;28;19921;-78
2023/05/09 07:47:07;;;;;;;;;;;17.70;58.50;;;;;;5008897;28;19986;-78
2023/05/09 07:49:33;;;;;;;;;;;17.70;58.50;;;;;;4999782;28;19925;-78
2023/05/09 07:52:10;;;;;;;;;;;17.80;58.90;;;;;;5014245;28;20637;-77
2023/05/09 07:54:36;;;;;;;;;;;17.90;58.40;;;;;;5027810;28;20003;-78
2023/05/09 07:57:01;;;;;;;;;;;18.00;58.40;;;;;;5010041;28;19931;-77
2023/05/09 07:59:27;;;;;;;;;;;18.10;58.30;;;;;;5029004;28;20355;-77
2023/05/09 08:01:52;;;;;;;;;;;18.10;58.20;;;;;;5030267;28;19964;-77
2023/05/09 08:04:18;;;;;;;;;;;18.20;58.20;;;;;;5013685;28;19924;-77
2023/05/09 08:06:43;;;;;;;;;;;18.30;58.10;;;;;;5030637;28;19927;-78
2023/05/09 08:09:09;;;;;;;;;;;18.30;58.00;;;;;;5029643;28;20921;-77
2023/05/09 08:11:34;;;;;;;;;;;18.40;58.00;;;;;;5031290;28;19924;-77
2023/05/09 08:14:00;;;;;;;;;;;18.50;57.90;;;;;;5015139;28;19927;-77
2023/05/09 08:16:25;;;;;;;;;;;18.50;57.80;;;;;;5032535;28;20373;-77
2023/05/09 08:18:51;;;;;;;;;;;18.50;58.50;;;;;;5029520;28;20312;-78
2023/05/09 08:21:16;;;;;;;;;;;18.60;57.80;;;;;;5028620;28;19975;-76
2023/05/09 08:23:42;;;;;;;;;;;18.60;57.70;;;;;;5027035;28;19944;-77
2023/05/09 08:26:07;;;;;;;;;;;18.60;57.70;;;;;;5014056;28;19925;-77
2023/05/09 08:28:33;;;;;;;;;;;18.60;57.70;;;;;;5030424;28;19964;-78
2023/05/09 08:30:58;;;;;;;;;;;18.60;57.70;;;;;;5011813;28;20402;-77
2023/05/09 08:33:24;;;;;;;;;;;18.70;57.70;;;;;;5030708;28;20561;-77
2023/05/09 08:35:50;;;;;;;;;;;18.70;57.70;;;;;;5012467;28;19965;-78
2023/05/09 08:38:16;;;;;;;;;;;18.80;57.60;;;;;;5014092;28;19920;-78
2023/05/09 08:40:41;;;;;;;;;;;18.80;57.50;;;;;;5024322;28;19920;-77
2023/05/09 08:43:07;;;;;;;;;;;18.90;57.50;;;;;;5010068;28;19921;-78
2023/05/09 08:45:42;;;;;;;;;;;19.00;57.50;;;;;;5012681;28;19921;-77
2023/05/09 08:48:07;;;;;;;;;;;19.00;57.40;;;;;;4970028;28;19925;-78
2023/05/09 08:50:34;;;;;;;;;;;19.00;57.20;;;;;;5029837;28;20387;-77
2023/05/09 08:53:00;;;;;;;;;;;19.20;57.30;;;;;;4999172;28;19935;-78
2023/05/09 08:55:26;;;;;;;;;;;19.20;57.20;;;;;;5001403;28;20564;-77
2023/05/09 08:57:51;;;;;;;;;;;19.30;57.20;;;;;;5012459;28;19925;-78
2023/05/09 09:00:19;;;;;;;;;;;19.50;57.20;;;;;;5017187;28;19923;-78
2023/05/09 09:02:44;;;;;;;;;;;19.50;57.00;;;;;;5011574;28;20520;-77
2023/05/09 09:05:10;;;;;;;;;;;19.70;57.00;;;;;;5029112;28;20580;-78
2023/05/09 09:07:35;;;;;;;;;;;19.80;56.80;;;;;;5005616;28;19927;-77
2023/05/09 09:10:02;;;;;;;;;;;19.90;56.80;;;;;;5016423;28;19990;-77
2023/05/09 09:12:27;;;;;;;;;;;20.00;56.70;;;;;;5030571;28;19917;-78
2023/05/09 09:14:53;;;;;;;;;;;20.10;56.80;;;;;;5013044;28;20399;-78
2023/05/09 09:17:19;;;;;;;;;;;20.10;56.50;;;;;;5012924;28;20503;-77
2023/05/09 09:19:46;;;;;;;;;;;20.20;56.50;;;;;;5015626;28;20490;-76
2023/05/09 09:22:12;;;;;;;;;;;20.30;56.40;;;;;;5014185;28;19932;-77
2023/05/09 09:24:38;;;;;;;;;;;20.40;56.30;;;;;;5000107;28;20675;-77
2023/05/09 09:27:04;;;;;;;;;;;20.50;56.20;;;;;;4999178;28;19929;-77
2023/05/09 09:29:30;;;;;;;;;;;20.60;56.10;;;;;;5014539;28;19939;-79
2023/05/09 09:31:55;;;;;;;;;;;20.80;56.10;;;;;;5013766;28;19929;-78
2023/05/09 09:34:21;;;;;;;;;;;20.90;56.00;;;;;;5034813;28;19929;-77
2023/05/09 09:36:47;;;;;;;;;;;21.00;55.80;;;;;;5014957;28;20410;-78
2023/05/09 09:39:12;;;;;;;;;;;21.20;55.80;;;;;;5014675;28;19967;-78
2023/05/09 09:41:38;;;;;;;;;;;21.30;55.60;;;;;;5013417;28;22354;-77
2023/05/09 09:44:07;;;;;;;;;;;21.40;55.50;;;;;;5017130;28;19952;-78
2023/05/09 09:46:42;;;;;;;;;;;21.60;55.40;;;;;;5013120;28;19917;-78
2023/05/09 09:49:08;;;;;;;;;;;21.80;55.20;;;;;;5013709;28;20011;-78
2023/05/09 09:51:34;;;;;;;;;;;22.00;55.00;;;;;;5015653;28;20335;-78
2023/05/09 09:54:00;;;;;;;;;;;22.20;54.80;;;;;;5014127;28;19928;-78
2023/05/09 09:56:42;;;;;;;;;;;22.30;54.70;;;;;;5000357;28;19947;-77
2023/05/09 09:59:09;;;;;;;;;;;22.50;54.60;;;;;;5011818;28;20000;-78
2023/05/09 10:01:34;;;;;;;;;;;22.80;54.50;;;;;;4986272;28;20011;-78
2023/05/09 10:04:01;;;;;;;;;;;23.00;54.30;;;;;;5010384;28;19921;-79
2023/05/09 10:06:26;;;;;;;;;;;23.10;54.10;;;;;;5014306;28;19920;-77
2023/05/09 10:08:51;;;;;;;;;;;23.30;53.90;;;;;;5027427;28;19928;-75
2023/05/09 10:11:17;;;;;;;;;;;23.40;53.70;;;;;;5030914;28;20361;-78
2023/05/09 10:13:43;;;;;;;;;;;23.50;53.60;;;;;;5012401;28;19960;-78
2023/05/09 10:16:09;;;;;;;;;;;23.70;53.60;;;;;;5028122;28;19924;-78
2023/05/09 10:18:34;;;;;;;;;;;23.90;53.40;;;;;;5013897;28;19921;-78
2023/05/09 10:21:02;;;;;;;;;;;24.10;53.30;;;;;;5030507;28;19921;-76
2023/05/09 10:23:29;;;;;;;;;;;24.30;53.20;;;;;;5014162;28;19952;-77
2023/05/09 10:26:14;;;;;;;;;;;24.40;53.00;;;;;;5029393;28;19924;-76
2023/05/09 10:28:40;;;;;;;;;;;24.60;52.80;;;;;;5029034;28;19971;-77
2023/05/09 10:31:11;;;;;;;;;;;24.80;52.60;;;;;;5014345;28;20008;-76
2023/05/09 10:33:37;;;;;;;;;;;24.90;52.50;;;;;;5012395;28;19928;-77
2023/05/09 10:36:02;;;;;;;;;;;25.10;52.30;;;;;;4994581;28;19920;-77
2023/05/09 10:38:29;;;;;;;;;;;25.20;52.20;;;;;;4998355;28;19950;-77
2023/05/09 10:40:54;;;;;;;;;;;25.30;52.10;;;;;;5011894;28;19943;-76
2023/05/09 10:43:22;;;;;;;;;;;25.50;52.10;;;;;;5011706;28;20177;-76
2023/05/09 10:45:48;;;;;;;;;;;25.60;51.90;;;;;;5010841;28;20286;-76
2023/05/09 10:48:13;;;;;;;;;;;25.80;51.80;;;;;;5027500;28;19921;-76
2023/05/09 10:50:41;;;;;;;;;;;26.00;51.70;;;;;;4993544;28;19929;-77
2023/05/09 10:53:16;;;;;;;;;;;26.20;51.60;;;;;;5011167;28;19924;-77
2023/05/09 10:55:49;;;;;;;;;;;26.30;51.40;;;;;;4999184;28;19927;-77
2023/05/09 10:58:27;;;;;;;;;;;26.60;51.30;;;;;;5009348;28;20322;-77
2023/05/09 11:00:53;;;;;;;;;;;26.70;51.20;;;;;;4993463;28;19960;-77
2023/05/09 11:03:19;;;;;;;;;;;26.90;51.10;;;;;;5001200;28;19920;-77
2023/05/09 11:05:50;;;;;;;;;;;27.10;50.90;;;;;;4996719;28;19948;-77
2023/05/09 11:08:18;;;;;;;;;;;27.30;50.80;;;;;;5009387;28;19921;-76
2023/05/09 11:10:43;;;;;;;;;;;27.40;50.60;;;;;;5028048;28;20050;-77
2023/05/09 11:13:09;;;;;;;;;;;27.60;50.60;;;;;;5012741;28;20635;-76
2023/05/09 11:15:35;;;;;;;;;;;27.60;50.40;;;;;;5029628;28;19924;-78
2023/05/09 11:18:04;;;;;;;;;;;27.70;50.50;;;;;;5010975;28;20243;-77
2023/05/09 11:20:31;;;;;;;;;;;27.80;50.50;;;;;;5011897;28;19917;-76
2023/05/09 11:22:57;;;;;;;;;;;27.80;50.20;;;;;;4997378;28;19926;-77
2023/05/09 11:25:28;;;;;;;;;;;27.90;49.90;;;;;;5003122;28;19925;-78
2023/05/09 11:27:57;;;;;;;;;;;27.70;49.90;;;;;;5008614;28;19921;-76
2023/05/09 11:30:22;;;;;;;;;;;27.70;50.00;;;;;;5011416;28;20478;-77
2023/05/09 11:32:53;;;;;;;;;;;27.70;50.20;;;;;;4997818;28;19925;-77
2023/05/09 11:35:19;;;;;;;;;;;27.80;50.50;;;;;;5013825;28;20631;-77
2023/05/09 11:37:53;;;;;;;;;;;28.00;50.10;;;;;;5009249;28;19971;-77
2023/05/09 11:40:20;;;;;;;;;;;28.10;50.00;;;;;;5010908;28;19936;-77
2023/05/09 11:42:46;;;;;;;;;;;28.40;50.60;;;;;;5013105;28;19928;-77
2023/05/09 11:45:11;;;;;;;;;;;28.50;49.70;;;;;;5013196;28;19925;-76
2023/05/09 11:47:37;;;;;;;;;;;28.70;49.60;;;;;;5010801;28;20332;-77
2023/05/09 11:50:06;;;;;;;;;;;28.90;49.50;;;;;;5010254;28;19931;-76
2023/05/09 11:52:32;;;;;;;;;;;28.90;49.30;;;;;;5013206;28;19921;-76
2023/05/09 11:54:57;;;;;;;;;;;28.90;49.30;;;;;;5024087;28;20613;-77
2023/05/09 11:57:23;;;;;;;;;;;28.90;49.10;;;;;;5013676;28;19921;-76
2023/05/09 11:59:48;;;;;;;;;;;29.00;49.10;;;;;;5011687;28;20579;-77
2023/05/09 12:02:14;;;;;;;;;;;29.00;49.10;;;;;;4994121;28;19925;-76
2023/05/09 12:04:39;;;;;;;;;;;29.00;49.10;;;;;;5027933;28;19931;-77
2023/05/09 12:07:05;;;;;;;;;;;29.00;49.00;;;;;;5011371;28;19921;-76
2023/05/09 12:09:36;;;;;;;;;;;29.10;49.00;;;;;;5010933;28;19924;-77
2023/05/09 12:12:07;;;;;;;;;;;29.10;49.10;;;;;;5011168;28;20403;-76
2023/05/09 12:14:32;;;;;;;;;;;29.20;49.10;;;;;;5013156;28;20400;-77
2023/05/09 12:16:58;;;;;;;;;;;29.40;49.00;;;;;;4999254;28;19925;-76
2023/05/09 12:19:24;;;;;;;;;;;29.40;48.90;;;;;;5027389;28;21011;-76
2023/05/09 12:21:56;;;;;;;;;;;29.50;49.60;;;;;;5010075;28;19936;-77
2023/05/09 12:24:22;;;;;;;;;;;29.60;48.80;;;;;;4996711;28;20432;-77
2023/05/09 12:26:48;;;;;;;;;;;29.60;48.60;;;;;;5007067;28;20493;-76
2023/05/09 12:29:14;;;;;;;;;;;29.70;48.70;;;;;;5009259;28;19929;-76
2023/05/09 12:31:40;;;;;;;;;;;29.80;48.60;;;;;;5012712;28;19921;-76
2023/05/09 12:34:05;;;;;;;;;;;29.80;48.50;;;;;;5038086;28;19921;-75
2023/05/09 12:36:33;;;;;;;;;;;29.90;48.50;;;;;;5018749;28;19974;-76
2023/05/09 12:38:58;;;;;;;;;;;30.00;48.40;;;;;;5013115;28;19921;-76
2023/05/09 12:41:24;;;;;;;;;;;30.10;48.40;;;;;;5012804;28;20009;-76
2023/05/09 12:43:50;;;;;;;;;;;30.20;48.10;;;;;;5028157;28;19956;-77
2023/05/09 12:46:18;;;;;;;;;;;30.20;48.10;;;;;;5010878;28;19961;-77
2023/05/09 12:48:44;;;;;;;;;;;30.10;48.10;;;;;;5029452;28;20639;-77
2023/05/09 12:51:10;;;;;;;;;;;30.20;48.20;;;;;;5007189;28;20391;-77
2023/05/09 12:53:39;;;;;;;;;;;30.30;48.10;;;;;;5006156;28;20010;-76
2023/05/09 12:56:10;;;;;;;;;;;30.30;48.10;;;;;;5008774;28;20043;-77
2023/05/09 12:58:36;;;;;;;;;;;30.30;47.90;;;;;;5010359;28;20555;-77
2023/05/09 13:01:04;;;;;;;;;;;30.40;48.00;;;;;;5010310;28;19927;-77
2023/05/09 13:03:36;;;;;;;;;;;30.50;48.00;;;;;;5012329;28;19917;-77
2023/05/09 13:06:03;;;;;;;;;;;30.50;47.90;;;;;;5030029;28;20003;-77
2023/05/09 13:08:29;;;;;;;;;;;30.60;47.90;;;;;;5013601;28;19917;-77
2023/05/09 13:10:56;;;;;;;;;;;30.60;47.80;;;;;;5009632;28;19935;-76
2023/05/09 13:13:25;;;;;;;;;;;30.70;47.80;;;;;;5009703;28;19969;-77
2023/05/09 13:15:50;;;;;;;;;;;30.70;47.70;;;;;;5009820;28;21010;-77
2023/05/09 13:18:16;;;;;;;;;;;30.80;47.70;;;;;;5029736;28;19925;-77
2023/05/09 13:20:41;;;;;;;;;;;30.80;47.60;;;;;;5011918;28;23242;-77
2023/05/09 13:23:07;;;;;;;;;;;30.80;47.50;;;;;;5005791;28;20043;-77
2023/05/09 13:25:32;;;;;;;;;;;30.90;47.60;;;;;;5008021;28;20072;-76
2023/05/09 13:27:58;;;;;;;;;;;30.90;47.40;;;;;;4995582;28;19932;-77
2023/05/09 13:30:23;;;;;;;;;;;31.00;47.50;;;;;;5017708;28;20038;-77
2023/05/09 13:32:50;;;;;;;;;;;31.10;47.40;;;;;;5008215;28;20079;-77
2023/05/09 13:35:15;;;;;;;;;;;31.10;47.30;;;;;;5009609;28;20004;-77
2023/05/09 13:37:42;;;;;;;;;;;31.30;47.30;;;;;;4992786;28;19921;-76
2023/05/09 13:40:07;;;;;;;;;;;31.30;47.20;;;;;;5014112;28;19921;-77
2023/05/09 13:42:33;;;;;;;;;;;31.30;47.10;;;;;;5031471;28;19917;-77
2023/05/09 13:44:59;;;;;;;;;;;31.30;47.10;;;;;;5012553;28;19921;-76
2023/05/09 13:47:25;;;;;;;;;;;31.30;47.00;;;;;;5015616;28;19925;-77
2023/05/09 13:49:51;;;;;;;;;;;31.40;47.00;;;;;;5012300;28;20719;-77
2023/05/09 13:52:16;;;;;;;;;;;31.40;47.00;;;;;;5005311;28;20027;-76
2023/05/09 13:54:42;;;;;;;;;;;31.50;47.00;;;;;;5011406;28;19927;-77
2023/05/09 13:57:08;;;;;;;;;;;31.50;46.80;;;;;;5029581;28;19925;-77
2023/05/09 13:59:33;;;;;;;;;;;31.40;46.90;;;;;;5015237;28;19921;-77
2023/05/09 14:01:59;;;;;;;;;;;31.50;46.90;;;;;;5013428;28;19920;-77
2023/05/09 14:04:25;;;;;;;;;;;31.50;46.80;;;;;;5016685;28;20376;-78
2023/05/09 14:06:51;;;;;;;;;;;31.60;46.80;;;;;;5026694;28;19929;-76
2023/05/09 14:09:17;;;;;;;;;;;31.60;46.70;;;;;;5029045;28;19921;-76
2023/05/09 14:11:42;;;;;;;;;;;31.70;46.70;;;;;;5011133;28;19931;-77
2023/05/09 14:14:07;;;;;;;;;;;31.80;46.70;;;;;;5015406;28;19931;-77
2023/05/09 14:16:33;;;;;;;;;;;31.80;46.60;;;;;;5013623;28;20408;-76
2023/05/09 14:18:58;;;;;;;;;;;31.90;46.50;;;;;;5030222;28;19927;-76
2023/05/09 14:21:24;;;;;;;;;;;31.90;46.40;;;;;;5013493;28;19921;-76
2023/05/09 14:23:50;;;;;;;;;;;31.90;46.40;;;;;;5005436;28;19921;-76
2023/05/09 14:26:16;;;;;;;;;;;31.90;46.40;;;;;;5028783;28;19952;-76
2023/05/09 14:28:41;;;;;;;;;;;32.00;46.40;;;;;;5030827;28;19929;-76
2023/05/09 14:31:06;;;;;;;;;;;32.10;46.30;;;;;;5013191;28;19924;-77
2023/05/09 14:33:33;;;;;;;;;;;32.20;46.30;;;;;;5016146;28;19925;-77
2023/05/09 14:36:01;;;;;;;;;;;32.30;46.30;;;;;;5012187;28;19924;-78
2023/05/09 14:38:32;;;;;;;;;;;32.30;46.10;;;;;;5034476;28;19924;-77
2023/05/09 14:40:57;;;;;;;;;;;32.30;46.10;;;;;;5011386;28;19917;-76
2023/05/09 14:43:23;;;;;;;;;;;32.20;46.00;;;;;;5008314;28;19928;-76
2023/05/09 14:45:48;;;;;;;;;;;32.30;46.10;;;;;;5010127;28;19925;-77
2023/05/09 14:48:14;;;;;;;;;;;32.20;46.10;;;;;;5010899;28;21187;-77
2023/05/09 14:50:39;;;;;;;;;;;32.20;46.00;;;;;;5009699;28;19925;-76
2023/05/09 14:53:05;;;;;;;;;;;32.20;46.00;;;;;;5028124;28;19942;-76
2023/05/09 14:55:31;;;;;;;;;;;32.10;46.00;;;;;;5014109;28;19929;-76
2023/05/09 14:57:56;;;;;;;;;;;32.10;46.10;;;;;;5027501;28;19952;-76
2023/05/09 15:00:22;;;;;;;;;;;32.10;46.00;;;;;;5027285;28;19921;-75
2023/05/09 15:02:48;;;;;;;;;;;32.10;46.10;;;;;;5027682;28;20667;-76
2023/05/09 15:05:14;;;;;;;;;;;32.10;46.00;;;;;;5009880;28;19917;-76
2023/05/09 15:07:40;;;;;;;;;;;32.10;46.10;;;;;;5031925;28;19921;-76
2023/05/09 15:10:06;;;;;;;;;;;32.00;46.00;;;;;;5010166;28;19920;-76
2023/05/09 15:12:31;;;;;;;;;;;31.90;46.00;;;;;;5028213;28;20531;-76
2023/05/09 15:14:57;;;;;;;;;;;31.90;45.90;;;;;;5025293;28;19917;-76
2023/05/09 15:17:22;;;;;;;;;;;31.80;46.00;;;;;;5011085;28;20473;-75
2023/05/09 15:19:48;;;;;;;;;;;31.70;46.10;;;;;;5011015;28;20284;-76
2023/05/09 15:22:13;;;;;;;;;;;31.50;46.00;;;;;;5027971;28;19936;-76
2023/05/09 15:24:41;;;;;;;;;;;31.50;46.20;;;;;;5010781;28;19927;-76
2023/05/09 15:27:07;;;;;;;;;;;31.40;46.20;;;;;;5021473;28;20012;-77
2023/05/09 15:29:32;;;;;;;;;;;31.40;46.30;;;;;;5009444;28;20355;-76
2023/05/09 15:31:58;;;;;;;;;;;31.30;46.30;;;;;;5010918;28;19929;-76
2023/05/09 15:34:24;;;;;;;;;;;31.30;46.30;;;;;;5023612;28;19927;-76
2023/05/09 15:36:49;;;;;;;;;;;31.20;46.30;;;;;;5020021;28;20394;-77
2023/05/09 15:39:15;;;;;;;;;;;31.20;46.30;;;;;;5027757;28;19921;-76
2023/05/09 19:03:44;;;;;;;;;;;22.40;50.70;;;;;;5008641;28;19928;-75
2023/05/09 19:06:13;;;;;;;;;;;22.30;50.80;;;;;;4993931;28;19921;-75
2023/05/09 19:08:39;;;;;;;;;;;22.20;50.90;;;;;;4994153;28;19925;-75
2023/05/09 19:11:05;;;;;;;;;;;22.10;50.90;;;;;;4992122;28;20399;-76
2023/05/09 19:13:37;;;;;;;;;;;22.10;51.00;;;;;;4996532;28;19987;-76
2023/05/09 19:16:05;;;;;;;;;;;22.00;51.10;;;;;;5009807;28;19925;-77
2023/05/09 19:18:31;;;;;;;;;;;21.90;51.10;;;;;;5011238;28;19968;-76
2023/05/09 19:20:56;;;;;;;;;;;21.80;51.10;;;;;;5010675;28;20060;-76
2023/05/09 19:23:22;;;;;;;;;;;21.80;51.20;;;;;;5011919;28;20017;-75
2023/05/09 19:25:49;;;;;;;;;;;21.70;51.20;;;;;;5001358;28;19937;-76
2023/05/09 19:28:17;;;;;;;;;;;21.70;51.30;;;;;;4992747;28;19921;-77